sensor_id;sensor_type;location;lat;lon;timestamp;P1;P2;P0
78754;PMS5003;68073;54.176;-4.554;2023-04-05T00:00:28;38;35;
78754;PMS5003;68073;54.176;-4.554;2023-04-05T00:02:53;29;26;
78754;PMS5003;68073;54.176;-4.554;2023-04-05T00:05:19;35;31;
78754;PMS5003;68073;54.176;-4.554;2023-04-05T00:07:44;33;31;
78754;PMS5003;68073;54.176;-4.554;2023-04-05T00:10:09;32;31;
78754;PMS5003;68073;54.176;-4.554;2023-04-05T00:12:35;33;30;
78754;PMS5003;68073;54.176;-4.554;2023-04-05T00:15:00;30;29;
78754;PMS5003;68073;54.176;-4.554;2023-04-05T00:17:25;37;36;
78754;PMS5003;68073;54.176;-4.554;2023-04-05T00:19:50;33;31;
78754;PMS5003;68073;54.176;-4.554;2023-04-05T00:22:15;36;31;
78754;PMS5003;68073;54.176;-4.554;2023-04-05T00:24:41;40;37;
78754;PMS5003;68073;54.176;-4.554;2023-04-05T00:27:06;40;36;
78754;PMS5003;68073;54.176;-4.554;2023-04-05T00:29:32;34;31;
78754;PMS5003;68073;54.176;-4.554;2023-04-05T00:31:57;34;32;
78754;PMS5003;68073;54.176;-4.554;2023-04-05T00:34:23;27;25;
78754;PMS5003;68073;54.176;-4.554;2023-04-05T00:36:48;28;25;
78754;PMS5003;68073;54.176;-4.554;2023-04-05T00:39:13;31;30;
78754;PMS5003;68073;54.176;-4.554;2023-04-05T00:41:38;27;22;
78754;PMS5003;68073;54.176;-4.554;2023-04-05T00:44:04;27;23;
78754;PMS5003;68073;54.176;-4.554;2023-04-05T00:46:29;21;17;
78754;PMS5003;68073;54.176;-4.554;2023-04-05T00:48:54;28;27;
78754;PMS5003;68073;54.176;-4.554;2023-04-05T00:51:20;26;21;
78754;PMS5003;68073;54.176;-4.554;2023-04-05T00:53:46;24;23;
78754;PMS5003;68073;54.176;-4.554;2023-04-05T00:56:11;25;23;
78754;PMS5003;68073;54.176;-4.554;2023-04-05T00:58:37;23;22;
78754;PMS5003;68073;54.176;-4.554;2023-04-05T01:01:03;28;26;
78754;PMS5003;68073;54.176;-4.554;2023-04-05T01:03:28;21;21;
78754;PMS5003;68073;54.176;-4.554;2023-04-05T01:05:54;28;27;
78754;PMS5003;68073;54.176;-4.554;2023-04-05T01:08:20;29;25;
78754;PMS5003;68073;54.176;-4.554;2023-04-05T01:10:47;28;27;
78754;PMS5003;68073;54.176;-4.554;2023-04-05T01:13:10;24;22;
78754;PMS5003;68073;54.176;-4.554;2023-04-05T01:15:35;22;21;
78754;PMS5003;68073;54.176;-4.554;2023-04-05T01:18:01;24;21;
78754;PMS5003;68073;54.176;-4.554;2023-04-05T01:20:26;25;23;
78754;PMS5003;68073;54.176;-4.554;2023-04-05T01:25:21;23;22;
78754;PMS5003;68073;54.176;-4.554;2023-04-05T01:27:47;20;18;
78754;PMS5003;68073;54.176;-4.554;2023-04-05T01:30:08;21;21;
78754;PMS5003;68073;54.176;-4.554;2023-04-05T01:32:39;20;18;
78754;PMS5003;68073;54.176;-4.554;2023-04-05T01:35:00;23;21;
78754;PMS5003;68073;54.176;-4.554;2023-04-05T01:37:25;22;20;
78754;PMS5003;68073;54.176;-4.554;2023-04-05T01:39:48;22;21;
78754;PMS5003;68073;54.176;-4.554;2023-04-05T01:42:14;21;20;
78754;PMS5003;68073;54.176;-4.554;2023-04-05T01:44:39;18;16;
78754;PMS5003;68073;54.176;-4.554;2023-04-05T01:47:04;22;20;
78754;PMS5003;68073;54.176;-4.554;2023-04-05T01:49:29;20;16;
78754;PMS5003;68073;54.176;-4.554;2023-04-05T01:51:54;18;14;
78754;PMS5003;68073;54.176;-4.554;2023-04-05T01:54:19;22;20;
78754;PMS5003;68073;54.176;-4.554;2023-04-05T01:56:44;18;18;
78754;PMS5003;68073;54.176;-4.554;2023-04-05T01:59:10;16;14;
78754;PMS5003;68073;54.176;-4.554;2023-04-05T02:01:36;19;19;
78754;PMS5003;68073;54.176;-4.554;2023-04-05T02:04:01;22;20;
78754;PMS5003;68073;54.176;-4.554;2023-04-05T02:06:26;18;15;
78754;PMS5003;68073;54.176;-4.554;2023-04-05T02:08:52;21;20;
78754;PMS5003;68073;54.176;-4.554;2023-04-05T02:11:17;18;17;
78754;PMS5003;68073;54.176;-4.554;2023-04-05T02:13:42;18;18;
78754;PMS5003;68073;54.176;-4.554;2023-04-05T02:16:07;19;18;
78754;PMS5003;68073;54.176;-4.554;2023-04-05T02:18:32;20;16;
78754;PMS5003;68073;54.176;-4.554;2023-04-05T02:21:01;20;17;
78754;PMS5003;68073;54.176;-4.554;2023-04-05T02:23:23;22;19;
78754;PMS5003;68073;54.176;-4.554;2023-04-05T02:25:48;23;22;
78754;PMS5003;68073;54.176;-4.554;2023-04-05T02:28:14;24;22;
78754;PMS5003;68073;54.176;-4.554;2023-04-05T02:30:40;19;19;
78754;PMS5003;68073;54.176;-4.554;2023-04-05T02:33:05;19;16;
78754;PMS5003;68073;54.176;-4.554;2023-04-05T02:35:31;22;20;
78754;PMS5003;68073;54.176;-4.554;2023-04-05T02:37:56;21;20;
78754;PMS5003;68073;54.176;-4.554;2023-04-05T02:40:21;16;14;
78754;PMS5003;68073;54.176;-4.554;2023-04-05T02:42:47;22;21;
78754;PMS5003;68073;54.176;-4.554;2023-04-05T02:45:12;14;14;
78754;PMS5003;68073;54.176;-4.554;2023-04-05T02:47:37;16;15;
78754;PMS5003;68073;54.176;-4.554;2023-04-05T02:50:03;16;13;
78754;PMS5003;68073;54.176;-4.554;2023-04-05T02:52:28;14;14;
78754;PMS5003;68073;54.176;-4.554;2023-04-05T02:54:53;19;16;
78754;PMS5003;68073;54.176;-4.554;2023-04-05T02:57:18;18;18;
78754;PMS5003;68073;54.176;-4.554;2023-04-05T02:59:44;14;13;
78754;PMS5003;68073;54.176;-4.554;2023-04-05T03:02:09;15;15;
78754;PMS5003;68073;54.176;-4.554;2023-04-05T03:04:34;16;15;
78754;PMS5003;68073;54.176;-4.554;2023-04-05T03:06:59;18;16;
78754;PMS5003;68073;54.176;-4.554;2023-04-05T03:09:25;13;13;
78754;PMS5003;68073;54.176;-4.554;2023-04-05T03:11:50;21;16;
78754;PMS5003;68073;54.176;-4.554;2023-04-05T03:14:15;15;15;
78754;PMS5003;68073;54.176;-4.554;2023-04-05T03:16:41;11;10;
78754;PMS5003;68073;54.176;-4.554;2023-04-05T03:19:06;14;13;
78754;PMS5003;68073;54.176;-4.554;2023-04-05T03:21:32;14;14;
78754;PMS5003;68073;54.176;-4.554;2023-04-05T03:23:58;21;19;
78754;PMS5003;68073;54.176;-4.554;2023-04-05T03:26:23;19;14;
78754;PMS5003;68073;54.176;-4.554;2023-04-05T03:28:48;17;13;
78754;PMS5003;68073;54.176;-4.554;2023-04-05T03:31:13;15;15;
78754;PMS5003;68073;54.176;-4.554;2023-04-05T03:33:38;15;14;
78754;PMS5003;68073;54.176;-4.554;2023-04-05T03:36:04;12;12;
78754;PMS5003;68073;54.176;-4.554;2023-04-05T03:38:30;12;11;
78754;PMS5003;68073;54.176;-4.554;2023-04-05T03:40:55;10;9;
78754;PMS5003;68073;54.176;-4.554;2023-04-05T03:43:20;11;11;
78754;PMS5003;68073;54.176;-4.554;2023-04-05T03:45:45;15;14;
78754;PMS5003;68073;54.176;-4.554;2023-04-05T03:48:11;13;12;
78754;PMS5003;68073;54.176;-4.554;2023-04-05T03:50:36;12;12;
78754;PMS5003;68073;54.176;-4.554;2023-04-05T03:53:01;19;18;
78754;PMS5003;68073;54.176;-4.554;2023-04-05T03:55:27;18;18;
78754;PMS5003;68073;54.176;-4.554;2023-04-05T03:57:52;12;12;
78754;PMS5003;68073;54.176;-4.554;2023-04-05T04:00:17;14;13;
78754;PMS5003;68073;54.176;-4.554;2023-04-05T04:02:43;10;9;
78754;PMS5003;68073;54.176;-4.554;2023-04-05T04:05:08;10;10;
78754;PMS5003;68073;54.176;-4.554;2023-04-05T04:07:33;10;10;
78754;PMS5003;68073;54.176;-4.554;2023-04-05T04:09:58;9;9;
78754;PMS5003;68073;54.176;-4.554;2023-04-05T04:12:23;7;6;
78754;PMS5003;68073;54.176;-4.554;2023-04-05T04:14:48;11;10;
78754;PMS5003;68073;54.176;-4.554;2023-04-05T04:19:38;10;9;
78754;PMS5003;68073;54.176;-4.554;2023-04-05T04:22:03;6;6;
78754;PMS5003;68073;54.176;-4.554;2023-04-05T04:24:28;4;3;
78754;PMS5003;68073;54.176;-4.554;2023-04-05T04:26:53;7;5;
78754;PMS5003;68073;54.176;-4.554;2023-04-05T04:29:18;7;7;
78754;PMS5003;68073;54.176;-4.554;2023-04-05T04:31:44;7;6;
78754;PMS5003;68073;54.176;-4.554;2023-04-05T04:34:08;7;6;
78754;PMS5003;68073;54.176;-4.554;2023-04-05T04:36:34;5;5;
78754;PMS5003;68073;54.176;-4.554;2023-04-05T04:38:59;7;7;
78754;PMS5003;68073;54.176;-4.554;2023-04-05T04:41:24;9;7;
78754;PMS5003;68073;54.176;-4.554;2023-04-05T04:43:49;6;6;
78754;PMS5003;68073;54.176;-4.554;2023-04-05T04:46:14;6;5;
78754;PMS5003;68073;54.176;-4.554;2023-04-05T04:48:39;4;4;
78754;PMS5003;68073;54.176;-4.554;2023-04-05T04:51:04;5;4;
78754;PMS5003;68073;54.176;-4.554;2023-04-05T04:53:29;7;6;
78754;PMS5003;68073;54.176;-4.554;2023-04-05T04:55:54;6;6;
78754;PMS5003;68073;54.176;-4.554;2023-04-05T04:58:19;6;5;
78754;PMS5003;68073;54.176;-4.554;2023-04-05T05:00:44;5;5;
78754;PMS5003;68073;54.176;-4.554;2023-04-05T05:03:10;12;12;
78754;PMS5003;68073;54.176;-4.554;2023-04-05T05:05:40;7;7;
78754;PMS5003;68073;54.176;-4.554;2023-04-05T05:08:01;6;5;
78754;PMS5003;68073;54.176;-4.554;2023-04-05T05:10:26;9;7;
78754;PMS5003;68073;54.176;-4.554;2023-04-05T05:12:51;5;5;
78754;PMS5003;68073;54.176;-4.554;2023-04-05T05:15:17;9;7;
78754;PMS5003;68073;54.176;-4.554;2023-04-05T05:17:43;10;9;
78754;PMS5003;68073;54.176;-4.554;2023-04-05T05:20:08;8;8;
78754;PMS5003;68073;54.176;-4.554;2023-04-05T05:22:33;6;6;
78754;PMS5003;68073;54.176;-4.554;2023-04-05T05:24:58;15;13;
78754;PMS5003;68073;54.176;-4.554;2023-04-05T05:27:23;13;12;
78754;PMS5003;68073;54.176;-4.554;2023-04-05T05:29:48;13;13;
78754;PMS5003;68073;54.176;-4.554;2023-04-05T05:32:14;10;10;
78754;PMS5003;68073;54.176;-4.554;2023-04-05T05:34:39;11;11;
78754;PMS5003;68073;54.176;-4.554;2023-04-05T05:37:04;13;12;
78754;PMS5003;68073;54.176;-4.554;2023-04-05T05:39:29;13;13;
78754;PMS5003;68073;54.176;-4.554;2023-04-05T05:41:55;12;12;
78754;PMS5003;68073;54.176;-4.554;2023-04-05T05:44:20;10;10;
78754;PMS5003;68073;54.176;-4.554;2023-04-05T05:46:45;18;14;
78754;PMS5003;68073;54.176;-4.554;2023-04-05T05:49:11;10;10;
78754;PMS5003;68073;54.176;-4.554;2023-04-05T05:51:37;12;10;
78754;PMS5003;68073;54.176;-4.554;2023-04-05T05:54:02;13;11;
78754;PMS5003;68073;54.176;-4.554;2023-04-05T05:56:27;11;10;
78754;PMS5003;68073;54.176;-4.554;2023-04-05T05:58:52;17;13;
78754;PMS5003;68073;54.176;-4.554;2023-04-05T06:01:17;14;12;
78754;PMS5003;68073;54.176;-4.554;2023-04-05T06:03:42;14;12;
78754;PMS5003;68073;54.176;-4.554;2023-04-05T06:06:08;14;13;
78754;PMS5003;68073;54.176;-4.554;2023-04-05T06:08:33;13;13;
78754;PMS5003;68073;54.176;-4.554;2023-04-05T06:10:58;12;12;
78754;PMS5003;68073;54.176;-4.554;2023-04-05T06:13:23;13;11;
78754;PMS5003;68073;54.176;-4.554;2023-04-05T06:15:54;13;11;
78754;PMS5003;68073;54.176;-4.554;2023-04-05T06:18:14;9;9;
78754;PMS5003;68073;54.176;-4.554;2023-04-05T06:20:39;13;10;
78754;PMS5003;68073;54.176;-4.554;2023-04-05T06:23:04;10;10;
78754;PMS5003;68073;54.176;-4.554;2023-04-05T06:25:29;10;9;
78754;PMS5003;68073;54.176;-4.554;2023-04-05T06:27:54;11;10;
78754;PMS5003;68073;54.176;-4.554;2023-04-05T06:30:20;10;10;
78754;PMS5003;68073;54.176;-4.554;2023-04-05T06:32:46;12;12;
78754;PMS5003;68073;54.176;-4.554;2023-04-05T06:35:11;10;10;
78754;PMS5003;68073;54.176;-4.554;2023-04-05T06:37:36;9;9;
78754;PMS5003;68073;54.176;-4.554;2023-04-05T06:40:02;11;11;
78754;PMS5003;68073;54.176;-4.554;2023-04-05T06:42:26;9;9;
78754;PMS5003;68073;54.176;-4.554;2023-04-05T06:44:52;12;12;
78754;PMS5003;68073;54.176;-4.554;2023-04-05T06:47:17;9;5;
78754;PMS5003;68073;54.176;-4.554;2023-04-05T06:49:43;6;5;
78754;PMS5003;68073;54.176;-4.554;2023-04-05T06:52:08;19;19;
78754;PMS5003;68073;54.176;-4.554;2023-04-05T06:54:33;6;6;
78754;PMS5003;68073;54.176;-4.554;2023-04-05T06:56:58;4;4;
78754;PMS5003;68073;54.176;-4.554;2023-04-05T06:59:24;7;6;
78754;PMS5003;68073;54.176;-4.554;2023-04-05T07:01:49;8;6;
78754;PMS5003;68073;54.176;-4.554;2023-04-05T07:04:14;5;5;
78754;PMS5003;68073;54.176;-4.554;2023-04-05T07:06:39;7;6;
78754;PMS5003;68073;54.176;-4.554;2023-04-05T07:09:04;6;6;
78754;PMS5003;68073;54.176;-4.554;2023-04-05T07:11:29;7;7;
78754;PMS5003;68073;54.176;-4.554;2023-04-05T07:13:54;10;9;
78754;PMS5003;68073;54.176;-4.554;2023-04-05T07:16:19;9;9;
78754;PMS5003;68073;54.176;-4.554;2023-04-05T07:18:45;11;10;
78754;PMS5003;68073;54.176;-4.554;2023-04-05T07:21:10;6;6;
78754;PMS5003;68073;54.176;-4.554;2023-04-05T07:23:35;6;6;
78754;PMS5003;68073;54.176;-4.554;2023-04-05T07:26:01;19;19;
78754;PMS5003;68073;54.176;-4.554;2023-04-05T07:28:27;15;9;
78754;PMS5003;68073;54.176;-4.554;2023-04-05T07:30:52;14;13;
78754;PMS5003;68073;54.176;-4.554;2023-04-05T07:33:17;11;10;
78754;PMS5003;68073;54.176;-4.554;2023-04-05T07:35:43;39;37;
78754;PMS5003;68073;54.176;-4.554;2023-04-05T07:38:08;12;11;
78754;PMS5003;68073;54.176;-4.554;2023-04-05T07:40:34;14;12;
78754;PMS5003;68073;54.176;-4.554;2023-04-05T07:42:59;11;11;
78754;PMS5003;68073;54.176;-4.554;2023-04-05T07:45:25;14;13;
78754;PMS5003;68073;54.176;-4.554;2023-04-05T07:47:50;19;16;
78754;PMS5003;68073;54.176;-4.554;2023-04-05T07:50:16;20;16;
78754;PMS5003;68073;54.176;-4.554;2023-04-05T07:52:42;33;26;
78754;PMS5003;68073;54.176;-4.554;2023-04-05T07:55:07;16;16;
78754;PMS5003;68073;54.176;-4.554;2023-04-05T07:57:32;16;12;
78754;PMS5003;68073;54.176;-4.554;2023-04-05T07:59:57;12;11;
78754;PMS5003;68073;54.176;-4.554;2023-04-05T08:02:22;11;11;
78754;PMS5003;68073;54.176;-4.554;2023-04-05T08:04:48;9;7;
78754;PMS5003;68073;54.176;-4.554;2023-04-05T08:07:13;11;10;
78754;PMS5003;68073;54.176;-4.554;2023-04-05T08:09:38;3;2;
78754;PMS5003;68073;54.176;-4.554;2023-04-05T08:12:04;18;16;
78754;PMS5003;68073;54.176;-4.554;2023-04-05T08:14:29;7;6;
78754;PMS5003;68073;54.176;-4.554;2023-04-05T08:16:55;6;6;
78754;PMS5003;68073;54.176;-4.554;2023-04-05T08:19:20;4;4;
78754;PMS5003;68073;54.176;-4.554;2023-04-05T08:24:10;3;3;
78754;PMS5003;68073;54.176;-4.554;2023-04-05T08:26:35;2;2;
78754;PMS5003;68073;54.176;-4.554;2023-04-05T08:29:00;3;3;
78754;PMS5003;68073;54.176;-4.554;2023-04-05T08:31:25;2;2;
78754;PMS5003;68073;54.176;-4.554;2023-04-05T08:33:50;2;2;
78754;PMS5003;68073;54.176;-4.554;2023-04-05T08:36:15;5;3;
78754;PMS5003;68073;54.176;-4.554;2023-04-05T08:38:40;2;2;
78754;PMS5003;68073;54.176;-4.554;2023-04-05T08:41:07;2;2;
78754;PMS5003;68073;54.176;-4.554;2023-04-05T08:43:33;2;2;
78754;PMS5003;68073;54.176;-4.554;2023-04-05T08:45:55;2;2;
78754;PMS5003;68073;54.176;-4.554;2023-04-05T08:48:20;1;1;
78754;PMS5003;68073;54.176;-4.554;2023-04-05T08:50:49;3;2;
78754;PMS5003;68073;54.176;-4.554;2023-04-05T08:53:10;3;3;
78754;PMS5003;68073;54.176;-4.554;2023-04-05T08:55:35;2;2;
78754;PMS5003;68073;54.176;-4.554;2023-04-05T08:58:00;4;4;
78754;PMS5003;68073;54.176;-4.554;2023-04-05T09:00:25;4;2;
78754;PMS5003;68073;54.176;-4.554;2023-04-05T09:02:52;4;4;
78754;PMS5003;68073;54.176;-4.554;2023-04-05T09:05:15;6;5;
78754;PMS5003;68073;54.176;-4.554;2023-04-05T09:07:40;5;4;
78754;PMS5003;68073;54.176;-4.554;2023-04-05T09:10:05;5;5;
78754;PMS5003;68073;54.176;-4.554;2023-04-05T09:12:30;8;6;
78754;PMS5003;68073;54.176;-4.554;2023-04-05T09:14:55;6;5;
78754;PMS5003;68073;54.176;-4.554;2023-04-05T09:17:20;4;4;
78754;PMS5003;68073;54.176;-4.554;2023-04-05T09:19:45;4;4;
78754;PMS5003;68073;54.176;-4.554;2023-04-05T09:24:37;5;4;
78754;PMS5003;68073;54.176;-4.554;2023-04-05T09:27:03;6;5;
78754;PMS5003;68073;54.176;-4.554;2023-04-05T09:29:27;3;3;
78754;PMS5003;68073;54.176;-4.554;2023-04-05T09:31:51;3;3;
78754;PMS5003;68073;54.176;-4.554;2023-04-05T09:34:19;10;10;
78754;PMS5003;68073;54.176;-4.554;2023-04-05T09:36:42;17;17;
78754;PMS5003;68073;54.176;-4.554;2023-04-05T09:39:07;2;2;
78754;PMS5003;68073;54.176;-4.554;2023-04-05T09:41:33;3;3;
78754;PMS5003;68073;54.176;-4.554;2023-04-05T09:43:59;4;3;
78754;PMS5003;68073;54.176;-4.554;2023-04-05T09:46:29;2;2;
78754;PMS5003;68073;54.176;-4.554;2023-04-05T09:48:50;3;3;
78754;PMS5003;68073;54.176;-4.554;2023-04-05T09:51:15;3;3;
78754;PMS5003;68073;54.176;-4.554;2023-04-05T09:56:07;2;2;
78754;PMS5003;68073;54.176;-4.554;2023-04-05T09:58:32;4;4;
78754;PMS5003;68073;54.176;-4.554;2023-04-05T10:00:57;4;4;
78754;PMS5003;68073;54.176;-4.554;2023-04-05T10:03:23;4;3;
78754;PMS5003;68073;54.176;-4.554;2023-04-05T10:05:49;4;3;
78754;PMS5003;68073;54.176;-4.554;2023-04-05T10:08:13;8;8;
78754;PMS5003;68073;54.176;-4.554;2023-04-05T10:10:45;5;4;
78754;PMS5003;68073;54.176;-4.554;2023-04-05T10:13:04;12;11;
78754;PMS5003;68073;54.176;-4.554;2023-04-05T10:15:29;5;5;
78754;PMS5003;68073;54.176;-4.554;2023-04-05T10:17:55;3;3;
78754;PMS5003;68073;54.176;-4.554;2023-04-05T10:20:20;3;3;
78754;PMS5003;68073;54.176;-4.554;2023-04-05T10:22:50;1;1;
78754;PMS5003;68073;54.176;-4.554;2023-04-05T10:25:12;8;8;
78754;PMS5003;68073;54.176;-4.554;2023-04-05T10:27:36;4;3;
78754;PMS5003;68073;54.176;-4.554;2023-04-05T10:30:03;5;4;
78754;PMS5003;68073;54.176;-4.554;2023-04-05T10:32:26;3;3;
78754;PMS5003;68073;54.176;-4.554;2023-04-05T10:34:52;4;3;
78754;PMS5003;68073;54.176;-4.554;2023-04-05T10:37:19;4;4;
78754;PMS5003;68073;54.176;-4.554;2023-04-05T10:39:43;4;3;
78754;PMS5003;68073;54.176;-4.554;2023-04-05T10:42:09;2;2;
78754;PMS5003;68073;54.176;-4.554;2023-04-05T10:44:33;2;2;
78754;PMS5003;68073;54.176;-4.554;2023-04-05T10:46:59;2;2;
78754;PMS5003;68073;54.176;-4.554;2023-04-05T10:49:28;4;4;
78754;PMS5003;68073;54.176;-4.554;2023-04-05T10:51:50;4;4;
78754;PMS5003;68073;54.176;-4.554;2023-04-05T10:54:16;2;2;
78754;PMS5003;68073;54.176;-4.554;2023-04-05T10:56:42;4;3;
78754;PMS5003;68073;54.176;-4.554;2023-04-05T10:59:08;2;2;
78754;PMS5003;68073;54.176;-4.554;2023-04-05T11:01:33;5;3;
78754;PMS5003;68073;54.176;-4.554;2023-04-05T11:06:30;2;2;
78754;PMS5003;68073;54.176;-4.554;2023-04-05T11:08:52;1;1;
78754;PMS5003;68073;54.176;-4.554;2023-04-05T11:11:17;1;1;
78754;PMS5003;68073;54.176;-4.554;2023-04-05T11:13:48;5;4;
78754;PMS5003;68073;54.176;-4.554;2023-04-05T11:16:08;3;3;
78754;PMS5003;68073;54.176;-4.554;2023-04-05T11:18:34;5;4;
78754;PMS5003;68073;54.176;-4.554;2023-04-05T11:21:04;5;5;
78754;PMS5003;68073;54.176;-4.554;2023-04-05T11:23:26;4;4;
78754;PMS5003;68073;54.176;-4.554;2023-04-05T11:25:53;5;5;
78754;PMS5003;68073;54.176;-4.554;2023-04-05T11:28:23;8;7;
78754;PMS5003;68073;54.176;-4.554;2023-04-05T11:30:45;5;4;
78754;PMS5003;68073;54.176;-4.554;2023-04-05T11:33:09;11;8;
78754;PMS5003;68073;54.176;-4.554;2023-04-05T11:35:34;11;8;
78754;PMS5003;68073;54.176;-4.554;2023-04-05T11:38:05;14;8;
78754;PMS5003;68073;54.176;-4.554;2023-04-05T11:40:26;13;10;
78754;PMS5003;68073;54.176;-4.554;2023-04-05T11:45:17;13;11;
78754;PMS5003;68073;54.176;-4.554;2023-04-05T11:47:42;12;12;
78754;PMS5003;68073;54.176;-4.554;2023-04-05T11:50:08;14;12;
78754;PMS5003;68073;54.176;-4.554;2023-04-05T11:52:34;15;13;
78754;PMS5003;68073;54.176;-4.554;2023-04-05T11:55:00;17;13;
78754;PMS5003;68073;54.176;-4.554;2023-04-05T11:57:25;17;15;
78754;PMS5003;68073;54.176;-4.554;2023-04-05T11:59:51;15;14;
78754;PMS5003;68073;54.176;-4.554;2023-04-05T12:02:16;17;15;
78754;PMS5003;68073;54.176;-4.554;2023-04-05T12:04:41;11;9;
78754;PMS5003;68073;54.176;-4.554;2023-04-05T12:07:08;16;16;
78754;PMS5003;68073;54.176;-4.554;2023-04-05T12:09:32;13;13;
78754;PMS5003;68073;54.176;-4.554;2023-04-05T12:11:58;20;19;
78754;PMS5003;68073;54.176;-4.554;2023-04-05T12:14:24;16;14;
78754;PMS5003;68073;54.176;-4.554;2023-04-05T12:16:49;15;14;
78754;PMS5003;68073;54.176;-4.554;2023-04-05T12:19:15;10;10;
78754;PMS5003;68073;54.176;-4.554;2023-04-05T12:21:40;11;8;
78754;PMS5003;68073;54.176;-4.554;2023-04-05T12:24:06;12;9;
78754;PMS5003;68073;54.176;-4.554;2023-04-05T12:26:33;13;12;
78754;PMS5003;68073;54.176;-4.554;2023-04-05T12:28:58;12;9;
78754;PMS5003;68073;54.176;-4.554;2023-04-05T12:33:48;18;17;
78754;PMS5003;68073;54.176;-4.554;2023-04-05T12:36:14;15;12;
78754;PMS5003;68073;54.176;-4.554;2023-04-05T12:38:40;12;9;
78754;PMS5003;68073;54.176;-4.554;2023-04-05T12:41:06;6;6;
78754;PMS5003;68073;54.176;-4.554;2023-04-05T12:43:37;9;9;
78754;PMS5003;68073;54.176;-4.554;2023-04-05T12:45:57;11;8;
78754;PMS5003;68073;54.176;-4.554;2023-04-05T12:48:23;9;9;
78754;PMS5003;68073;54.176;-4.554;2023-04-05T12:50:48;7;7;
78754;PMS5003;68073;54.176;-4.554;2023-04-05T12:53:14;7;7;
78754;PMS5003;68073;54.176;-4.554;2023-04-05T12:55:41;6;5;
78754;PMS5003;68073;54.176;-4.554;2023-04-05T12:58:05;5;3;
78754;PMS5003;68073;54.176;-4.554;2023-04-05T13:00:31;3;3;
78754;PMS5003;68073;54.176;-4.554;2023-04-05T13:02:57;3;3;
78754;PMS5003;68073;54.176;-4.554;2023-04-05T13:05:23;4;4;
78754;PMS5003;68073;54.176;-4.554;2023-04-05T13:07:48;6;6;
78754;PMS5003;68073;54.176;-4.554;2023-04-05T13:10:14;5;4;
78754;PMS5003;68073;54.176;-4.554;2023-04-05T13:12:40;3;2;
78754;PMS5003;68073;54.176;-4.554;2023-04-05T13:15:06;4;4;
78754;PMS5003;68073;54.176;-4.554;2023-04-05T13:17:31;5;5;
78754;PMS5003;68073;54.176;-4.554;2023-04-05T13:19:57;5;5;
78754;PMS5003;68073;54.176;-4.554;2023-04-05T13:22:23;7;7;
78754;PMS5003;68073;54.176;-4.554;2023-04-05T13:24:49;5;5;
78754;PMS5003;68073;54.176;-4.554;2023-04-05T13:27:15;13;12;
78754;PMS5003;68073;54.176;-4.554;2023-04-05T13:29:41;14;14;
78754;PMS5003;68073;54.176;-4.554;2023-04-05T13:32:06;12;12;
78754;PMS5003;68073;54.176;-4.554;2023-04-05T13:34:32;8;7;
78754;PMS5003;68073;54.176;-4.554;2023-04-05T13:36:58;8;7;
78754;PMS5003;68073;54.176;-4.554;2023-04-05T13:39:24;9;8;
78754;PMS5003;68073;54.176;-4.554;2023-04-05T13:41:50;12;9;
78754;PMS5003;68073;54.176;-4.554;2023-04-05T13:44:15;11;11;
78754;PMS5003;68073;54.176;-4.554;2023-04-05T13:46:41;9;8;
78754;PMS5003;68073;54.176;-4.554;2023-04-05T13:49:07;12;12;
78754;PMS5003;68073;54.176;-4.554;2023-04-05T13:51:33;8;8;
78754;PMS5003;68073;54.176;-4.554;2023-04-05T13:53:59;9;8;
78754;PMS5003;68073;54.176;-4.554;2023-04-05T13:56:24;8;8;
78754;PMS5003;68073;54.176;-4.554;2023-04-05T13:58:50;11;11;
78754;PMS5003;68073;54.176;-4.554;2023-04-05T14:01:16;11;8;
78754;PMS5003;68073;54.176;-4.554;2023-04-05T14:03:41;9;8;
78754;PMS5003;68073;54.176;-4.554;2023-04-05T14:06:07;19;17;
78754;PMS5003;68073;54.176;-4.554;2023-04-05T14:08:33;8;7;
78754;PMS5003;68073;54.176;-4.554;2023-04-05T14:10:59;8;7;
78754;PMS5003;68073;54.176;-4.554;2023-04-05T14:13:24;7;7;
78754;PMS5003;68073;54.176;-4.554;2023-04-05T14:15:50;16;15;
78754;PMS5003;68073;54.176;-4.554;2023-04-05T14:18:15;11;10;
78754;PMS5003;68073;54.176;-4.554;2023-04-05T14:20:41;9;9;
78754;PMS5003;68073;54.176;-4.554;2023-04-05T14:23:07;9;9;
78754;PMS5003;68073;54.176;-4.554;2023-04-05T14:25:32;8;8;
78754;PMS5003;68073;54.176;-4.554;2023-04-05T14:27:58;12;10;
78754;PMS5003;68073;54.176;-4.554;2023-04-05T14:30:24;10;9;
78754;PMS5003;68073;54.176;-4.554;2023-04-05T14:32:49;9;9;
78754;PMS5003;68073;54.176;-4.554;2023-04-05T14:35:15;13;13;
78754;PMS5003;68073;54.176;-4.554;2023-04-05T14:37:40;7;6;
78754;PMS5003;68073;54.176;-4.554;2023-04-05T14:40:06;8;8;
78754;PMS5003;68073;54.176;-4.554;2023-04-05T14:42:32;7;6;
78754;PMS5003;68073;54.176;-4.554;2023-04-05T14:44:57;16;13;
78754;PMS5003;68073;54.176;-4.554;2023-04-05T14:47:23;13;11;
78754;PMS5003;68073;54.176;-4.554;2023-04-05T14:49:49;14;13;
78754;PMS5003;68073;54.176;-4.554;2023-04-05T14:52:14;58;57;
78754;PMS5003;68073;54.176;-4.554;2023-04-05T14:54:40;14;14;
78754;PMS5003;68073;54.176;-4.554;2023-04-05T14:57:05;22;18;
78754;PMS5003;68073;54.176;-4.554;2023-04-05T14:59:30;22;21;
78754;PMS5003;68073;54.176;-4.554;2023-04-05T15:01:55;15;13;
78754;PMS5003;68073;54.176;-4.554;2023-04-05T15:04:21;14;14;
78754;PMS5003;68073;54.176;-4.554;2023-04-05T15:06:46;11;10;
78754;PMS5003;68073;54.176;-4.554;2023-04-05T15:09:12;11;10;
78754;PMS5003;68073;54.176;-4.554;2023-04-05T15:11:38;14;12;
78754;PMS5003;68073;54.176;-4.554;2023-04-05T15:14:04;13;11;
78754;PMS5003;68073;54.176;-4.554;2023-04-05T15:16:29;10;9;
78754;PMS5003;68073;54.176;-4.554;2023-04-05T15:18:55;18;18;
78754;PMS5003;68073;54.176;-4.554;2023-04-05T15:21:21;10;9;
78754;PMS5003;68073;54.176;-4.554;2023-04-05T15:23:47;13;10;
78754;PMS5003;68073;54.176;-4.554;2023-04-05T15:26:12;8;8;
78754;PMS5003;68073;54.176;-4.554;2023-04-05T15:28:38;10;8;
78754;PMS5003;68073;54.176;-4.554;2023-04-05T15:31:04;12;10;
78754;PMS5003;68073;54.176;-4.554;2023-04-05T15:33:29;9;9;
78754;PMS5003;68073;54.176;-4.554;2023-04-05T15:35:55;9;9;
78754;PMS5003;68073;54.176;-4.554;2023-04-05T15:38:20;11;9;
78754;PMS5003;68073;54.176;-4.554;2023-04-05T15:40:46;10;10;
78754;PMS5003;68073;54.176;-4.554;2023-04-05T15:43:12;10;9;
78754;PMS5003;68073;54.176;-4.554;2023-04-05T15:45:37;11;10;
78754;PMS5003;68073;54.176;-4.554;2023-04-05T15:48:03;9;9;
78754;PMS5003;68073;54.176;-4.554;2023-04-05T15:50:29;12;9;
78754;PMS5003;68073;54.176;-4.554;2023-04-05T15:52:55;15;12;
78754;PMS5003;68073;54.176;-4.554;2023-04-05T15:55:21;6;6;
78754;PMS5003;68073;54.176;-4.554;2023-04-05T15:57:46;13;13;
78754;PMS5003;68073;54.176;-4.554;2023-04-05T16:00:12;8;7;
78754;PMS5003;68073;54.176;-4.554;2023-04-05T16:02:38;8;8;
78754;PMS5003;68073;54.176;-4.554;2023-04-05T16:05:03;24;23;
78754;PMS5003;68073;54.176;-4.554;2023-04-05T16:07:28;14;12;
78754;PMS5003;68073;54.176;-4.554;2023-04-05T16:09:54;4;4;
78754;PMS5003;68073;54.176;-4.554;2023-04-05T16:12:19;8;7;
78754;PMS5003;68073;54.176;-4.554;2023-04-05T16:14:45;5;4;
78754;PMS5003;68073;54.176;-4.554;2023-04-05T16:17:11;27;26;
78754;PMS5003;68073;54.176;-4.554;2023-04-05T16:19:37;4;4;
78754;PMS5003;68073;54.176;-4.554;2023-04-05T16:22:02;5;4;